sensor_id;sensor_type;location;lat;lon;timestamp;temperature;humidity
21193;DHT22;10754;51.106;7.164;2023-06-26T00:00:25;26.20;99.90
21193;DHT22;10754;51.106;7.164;2023-06-26T00:02:51;26.20;99.90
21193;DHT22;10754;51.106;7.164;2023-06-26T00:05:16;26.20;99.90
21193;DHT22;10754;51.106;7.164;2023-06-26T00:07:42;26.20;99.90
21193;DHT22;10754;51.106;7.164;2023-06-26T00:10:08;26.10;99.90
21193;DHT22;10754;51.106;7.164;2023-06-26T00:12:33;26.10;99.90
21193;DHT22;10754;51.106;7.164;2023-06-26T00:14:59;26.10;99.90
21193;DHT22;10754;51.106;7.164;2023-06-26T00:17:25;26.00;99.90
21193;DHT22;10754;51.106;7.164;2023-06-26T00:19:51;26.00;99.90
21193;DHT22;10754;51.106;7.164;2023-06-26T00:22:17;25.90;99.90
21193;DHT22;10754;51.106;7.164;2023-06-26T00:24:42;25.90;99.90
21193;DHT22;10754;51.106;7.164;2023-06-26T00:27:10;25.90;99.90
21193;DHT22;10754;51.106;7.164;2023-06-26T00:29:35;25.90;99.90
21193;DHT22;10754;51.106;7.164;2023-06-26T00:32:01;25.80;99.90
21193;DHT22;10754;51.106;7.164;2023-06-26T00:34:26;25.80;99.90
21193;DHT22;10754;51.106;7.164;2023-06-26T00:36:52;25.70;99.90
21193;DHT22;10754;51.106;7.164;2023-06-26T00:39:18;25.70;99.90
21193;DHT22;10754;51.106;7.164;2023-06-26T00:41:43;25.70;99.90
21193;DHT22;10754;51.106;7.164;2023-06-26T00:44:09;25.60;99.90
21193;DHT22;10754;51.106;7.164;2023-06-26T00:46:35;25.60;99.90
21193;DHT22;10754;51.106;7.164;2023-06-26T00:49:03;25.50;99.90
21193;DHT22;10754;51.106;7.164;2023-06-26T00:51:29;25.60;99.90
21193;DHT22;10754;51.106;7.164;2023-06-26T00:53:56;25.50;99.90
21193;DHT22;10754;51.106;7.164;2023-06-26T00:56:22;25.40;99.90
21193;DHT22;10754;51.106;7.164;2023-06-26T00:58:48;25.40;99.90
21193;DHT22;10754;51.106;7.164;2023-06-26T01:01:14;25.30;99.90
21193;DHT22;10754;51.106;7.164;2023-06-26T01:03:45;25.30;99.90
21193;DHT22;10754;51.106;7.164;2023-06-26T01:06:17;25.30;99.90
21193;DHT22;10754;51.106;7.164;2023-06-26T01:08:43;25.20;99.90
21193;DHT22;10754;51.106;7.164;2023-06-26T01:11:09;25.20;99.90
21193;DHT22;10754;51.106;7.164;2023-06-26T01:13:36;25.20;99.90
21193;DHT22;10754;51.106;7.164;2023-06-26T01:16:02;25.20;99.90
21193;DHT22;10754;51.106;7.164;2023-06-26T01:18:29;25.10;99.90
21193;DHT22;10754;51.106;7.164;2023-06-26T01:20:56;25.10;99.90
21193;DHT22;10754;51.106;7.164;2023-06-26T01:26:19;25.10;99.90
21193;DHT22;10754;51.106;7.164;2023-06-26T01:28:46;25.00;99.90
21193;DHT22;10754;51.106;7.164;2023-06-26T01:31:12;24.90;99.90
21193;DHT22;10754;51.106;7.164;2023-06-26T01:33:40;24.90;99.90
21193;DHT22;10754;51.106;7.164;2023-06-26T01:36:06;24.90;99.90
21193;DHT22;10754;51.106;7.164;2023-06-26T01:38:32;24.90;99.90
21193;DHT22;10754;51.106;7.164;2023-06-26T01:40:58;24.80;99.90
21193;DHT22;10754;51.106;7.164;2023-06-26T01:46:16;24.90;99.90
21193;DHT22;10754;51.106;7.164;2023-06-26T01:49:01;24.70;99.90
21193;DHT22;10754;51.106;7.164;2023-06-26T01:51:38;24.80;99.90
21193;DHT22;10754;51.106;7.164;2023-06-26T01:54:10;24.70;99.90
21193;DHT22;10754;51.106;7.164;2023-06-26T01:56:39;24.70;99.90
21193;DHT22;10754;51.106;7.164;2023-06-26T01:59:05;24.70;99.90
21193;DHT22;10754;51.106;7.164;2023-06-26T02:01:32;24.60;99.90
21193;DHT22;10754;51.106;7.164;2023-06-26T02:03:59;24.60;99.90
21193;DHT22;10754;51.106;7.164;2023-06-26T02:06:25;24.60;99.90
21193;DHT22;10754;51.106;7.164;2023-06-26T02:08:50;24.60;99.90
21193;DHT22;10754;51.106;7.164;2023-06-26T02:11:16;24.50;99.90
21193;DHT22;10754;51.106;7.164;2023-06-26T02:13:41;24.50;99.90
21193;DHT22;10754;51.106;7.164;2023-06-26T02:16:07;24.50;99.90
21193;DHT22;10754;51.106;7.164;2023-06-26T02:18:32;24.50;99.90
21193;DHT22;10754;51.106;7.164;2023-06-26T02:20:58;24.50;99.90
21193;DHT22;10754;51.106;7.164;2023-06-26T02:23:23;24.50;99.90
21193;DHT22;10754;51.106;7.164;2023-06-26T02:25:49;24.50;99.90
21193;DHT22;10754;51.106;7.164;2023-06-26T02:28:14;24.40;99.90
21193;DHT22;10754;51.106;7.164;2023-06-26T02:30:40;24.40;99.90
21193;DHT22;10754;51.106;7.164;2023-06-26T02:33:05;24.40;99.90
21193;DHT22;10754;51.106;7.164;2023-06-26T02:35:31;24.40;99.90
21193;DHT22;10754;51.106;7.164;2023-06-26T02:37:58;24.40;99.90
21193;DHT22;10754;51.106;7.164;2023-06-26T02:40:23;24.30;99.90
21193;DHT22;10754;51.106;7.164;2023-06-26T02:42:49;24.30;99.90
21193;DHT22;10754;51.106;7.164;2023-06-26T02:45:14;24.30;99.90
21193;DHT22;10754;51.106;7.164;2023-06-26T02:47:40;24.20;99.90
21193;DHT22;10754;51.106;7.164;2023-06-26T02:50:07;24.20;99.90
21193;DHT22;10754;51.106;7.164;2023-06-26T02:52:32;24.20;99.90
21193;DHT22;10754;51.106;7.164;2023-06-26T02:54:58;24.20;99.90
21193;DHT22;10754;51.106;7.164;2023-06-26T02:57:23;24.20;99.90
21193;DHT22;10754;51.106;7.164;2023-06-26T02:59:49;24.10;99.90
21193;DHT22;10754;51.106;7.164;2023-06-26T03:02:14;24.20;99.90
21193;DHT22;10754;51.106;7.164;2023-06-26T03:04:40;24.10;99.90
21193;DHT22;10754;51.106;7.164;2023-06-26T03:07:05;24.10;99.90
21193;DHT22;10754;51.106;7.164;2023-06-26T03:09:31;24.10;99.90
21193;DHT22;10754;51.106;7.164;2023-06-26T03:11:56;24.10;99.90
21193;DHT22;10754;51.106;7.164;2023-06-26T03:14:22;24.10;99.90
21193;DHT22;10754;51.106;7.164;2023-06-26T03:16:47;24.00;99.90
21193;DHT22;10754;51.106;7.164;2023-06-26T03:19:13;24.00;99.90
21193;DHT22;10754;51.106;7.164;2023-06-26T03:21:38;23.90;99.90
21193;DHT22;10754;51.106;7.164;2023-06-26T03:24:04;24.00;99.90
21193;DHT22;10754;51.106;7.164;2023-06-26T03:26:30;23.90;99.90
21193;DHT22;10754;51.106;7.164;2023-06-26T03:28:55;23.90;99.90
21193;DHT22;10754;51.106;7.164;2023-06-26T03:31:21;23.90;99.90
21193;DHT22;10754;51.106;7.164;2023-06-26T03:33:47;23.80;99.90
21193;DHT22;10754;51.106;7.164;2023-06-26T03:36:13;23.90;99.90
21193;DHT22;10754;51.106;7.164;2023-06-26T03:38:38;23.80;99.90
21193;DHT22;10754;51.106;7.164;2023-06-26T03:41:04;23.80;99.90
21193;DHT22;10754;51.106;7.164;2023-06-26T03:43:29;23.80;99.90
21193;DHT22;10754;51.106;7.164;2023-06-26T03:45:55;23.80;99.90
21193;DHT22;10754;51.106;7.164;2023-06-26T03:48:20;23.80;99.90
21193;DHT22;10754;51.106;7.164;2023-06-26T03:50:46;23.80;99.90
21193;DHT22;10754;51.106;7.164;2023-06-26T03:53:11;23.80;99.90
21193;DHT22;10754;51.106;7.164;2023-06-26T03:55:37;23.80;99.90
21193;DHT22;10754;51.106;7.164;2023-06-26T03:58:04;23.80;99.90
21193;DHT22;10754;51.106;7.164;2023-06-26T04:00:29;23.90;99.90
21193;DHT22;10754;51.106;7.164;2023-06-26T04:02:55;23.90;99.90
21193;DHT22;10754;51.106;7.164;2023-06-26T04:05:20;23.80;99.90
21193;DHT22;10754;51.106;7.164;2023-06-26T04:07:50;23.80;99.90
21193;DHT22;10754;51.106;7.164;2023-06-26T04:10:15;23.80;99.90
21193;DHT22;10754;51.106;7.164;2023-06-26T04:12:41;23.90;99.90
21193;DHT22;10754;51.106;7.164;2023-06-26T04:15:07;23.80;99.90
21193;DHT22;10754;51.106;7.164;2023-06-26T04:17:32;23.80;99.90
21193;DHT22;10754;51.106;7.164;2023-06-26T04:19:58;23.80;99.90
21193;DHT22;10754;51.106;7.164;2023-06-26T04:22:23;23.80;99.90
21193;DHT22;10754;51.106;7.164;2023-06-26T04:24:50;23.80;99.90
21193;DHT22;10754;51.106;7.164;2023-06-26T04:27:15;23.80;99.90
21193;DHT22;10754;51.106;7.164;2023-06-26T04:29:41;23.80;99.90
21193;DHT22;10754;51.106;7.164;2023-06-26T04:32:07;23.80;99.90
21193;DHT22;10754;51.106;7.164;2023-06-26T04:34:32;23.80;99.90
21193;DHT22;10754;51.106;7.164;2023-06-26T04:37:01;23.80;99.90
21193;DHT22;10754;51.106;7.164;2023-06-26T04:39:29;23.70;99.90
21193;DHT22;10754;51.106;7.164;2023-06-26T04:41:55;23.80;99.90
21193;DHT22;10754;51.106;7.164;2023-06-26T04:44:21;23.90;99.90
21193;DHT22;10754;51.106;7.164;2023-06-26T04:46:46;23.80;99.90
21193;DHT22;10754;51.106;7.164;2023-06-26T04:49:11;23.80;99.90
21193;DHT22;10754;51.106;7.164;2023-06-26T04:51:37;23.80;99.90
21193;DHT22;10754;51.106;7.164;2023-06-26T04:54:09;23.80;99.90
21193;DHT22;10754;51.106;7.164;2023-06-26T04:56:35;23.90;99.90
21193;DHT22;10754;51.106;7.164;2023-06-26T04:59:01;23.90;99.90
21193;DHT22;10754;51.106;7.164;2023-06-26T05:01:26;23.90;99.90
21193;DHT22;10754;51.106;7.164;2023-06-26T05:04:00;23.90;99.90
21193;DHT22;10754;51.106;7.164;2023-06-26T05:06:26;24.00;99.90
21193;DHT22;10754;51.106;7.164;2023-06-26T05:08:51;24.00;99.90
21193;DHT22;10754;51.106;7.164;2023-06-26T05:11:17;24.00;99.90
21193;DHT22;10754;51.106;7.164;2023-06-26T05:13:43;24.00;99.90
21193;DHT22;10754;51.106;7.164;2023-06-26T05:16:09;24.10;99.90
21193;DHT22;10754;51.106;7.164;2023-06-26T05:18:37;24.20;99.90
21193;DHT22;10754;51.106;7.164;2023-06-26T05:21:03;24.20;99.90
21193;DHT22;10754;51.106;7.164;2023-06-26T05:23:33;24.20;99.90
21193;DHT22;10754;51.106;7.164;2023-06-26T05:26:02;24.40;99.90
21193;DHT22;10754;51.106;7.164;2023-06-26T05:28:29;24.50;99.90
21193;DHT22;10754;51.106;7.164;2023-06-26T05:30:57;24.60;99.90
21193;DHT22;10754;51.106;7.164;2023-06-26T05:33:24;24.50;99.90
21193;DHT22;10754;51.106;7.164;2023-06-26T05:35:52;24.50;99.90
21193;DHT22;10754;51.106;7.164;2023-06-26T05:38:18;24.50;99.90
21193;DHT22;10754;51.106;7.164;2023-06-26T05:40:44;24.60;99.90
21193;DHT22;10754;51.106;7.164;2023-06-26T05:43:10;24.70;99.90
21193;DHT22;10754;51.106;7.164;2023-06-26T05:45:36;24.60;99.90
21193;DHT22;10754;51.106;7.164;2023-06-26T05:48:01;24.50;99.90
21193;DHT22;10754;51.106;7.164;2023-06-26T05:50:28;24.50;99.90
21193;DHT22;10754;51.106;7.164;2023-06-26T05:52:54;24.60;99.90
21193;DHT22;10754;51.106;7.164;2023-06-26T05:55:20;24.60;99.90
21193;DHT22;10754;51.106;7.164;2023-06-26T05:57:46;24.60;99.90
21193;DHT22;10754;51.106;7.164;2023-06-26T06:00:12;24.70;99.90
21193;DHT22;10754;51.106;7.164;2023-06-26T06:02:39;24.70;99.90
21193;DHT22;10754;51.106;7.164;2023-06-26T06:05:05;24.70;99.90
21193;DHT22;10754;51.106;7.164;2023-06-26T06:07:32;24.70;99.90
21193;DHT22;10754;51.106;7.164;2023-06-26T06:09:58;24.70;99.90
21193;DHT22;10754;51.106;7.164;2023-06-26T06:12:23;24.80;99.90
21193;DHT22;10754;51.106;7.164;2023-06-26T06:14:49;24.80;99.90
21193;DHT22;10754;51.106;7.164;2023-06-26T06:17:14;24.70;99.90
21193;DHT22;10754;51.106;7.164;2023-06-26T06:19:40;24.80;99.90
21193;DHT22;10754;51.106;7.164;2023-06-26T06:22:05;24.80;99.90
21193;DHT22;10754;51.106;7.164;2023-06-26T06:24:31;24.90;99.90
21193;DHT22;10754;51.106;7.164;2023-06-26T06:26:56;25.00;99.90
21193;DHT22;10754;51.106;7.164;2023-06-26T06:29:22;25.10;99.90
21193;DHT22;10754;51.106;7.164;2023-06-26T06:31:48;24.90;99.90
21193;DHT22;10754;51.106;7.164;2023-06-26T06:34:13;24.90;99.90
21193;DHT22;10754;51.106;7.164;2023-06-26T06:36:39;25.00;99.90
21193;DHT22;10754;51.106;7.164;2023-06-26T06:39:04;25.10;99.90
21193;DHT22;10754;51.106;7.164;2023-06-26T06:41:30;25.10;99.90
21193;DHT22;10754;51.106;7.164;2023-06-26T06:43:55;25.30;99.90
21193;DHT22;10754;51.106;7.164;2023-06-26T06:46:21;25.50;99.90
21193;DHT22;10754;51.106;7.164;2023-06-26T06:48:47;25.40;99.90
21193;DHT22;10754;51.106;7.164;2023-06-26T06:51:12;25.50;99.90
21193;DHT22;10754;51.106;7.164;2023-06-26T06:53:38;25.40;99.90
21193;DHT22;10754;51.106;7.164;2023-06-26T06:56:04;25.40;99.90
21193;DHT22;10754;51.106;7.164;2023-06-26T06:58:29;25.30;99.90
21193;DHT22;10754;51.106;7.164;2023-06-26T07:00:59;25.30;99.90
21193;DHT22;10754;51.106;7.164;2023-06-26T07:03:24;25.30;99.90
21193;DHT22;10754;51.106;7.164;2023-06-26T07:05:50;25.20;99.90
21193;DHT22;10754;51.106;7.164;2023-06-26T07:08:15;25.20;99.90
21193;DHT22;10754;51.106;7.164;2023-06-26T07:10:41;25.20;99.90
21193;DHT22;10754;51.106;7.164;2023-06-26T07:13:07;25.20;99.90
21193;DHT22;10754;51.106;7.164;2023-06-26T07:15:32;25.30;99.90
21193;DHT22;10754;51.106;7.164;2023-06-26T07:17:58;25.30;99.90
21193;DHT22;10754;51.106;7.164;2023-06-26T07:20:23;25.40;99.90
21193;DHT22;10754;51.106;7.164;2023-06-26T07:22:50;25.40;99.90
21193;DHT22;10754;51.106;7.164;2023-06-26T07:25:15;25.30;99.90
21193;DHT22;10754;51.106;7.164;2023-06-26T07:27:41;25.30;99.90
21193;DHT22;10754;51.106;7.164;2023-06-26T07:30:08;25.40;99.90
21193;DHT22;10754;51.106;7.164;2023-06-26T07:32:37;25.40;99.90
21193;DHT22;10754;51.106;7.164;2023-06-26T07:35:03;25.40;99.90
21193;DHT22;10754;51.106;7.164;2023-06-26T07:37:29;25.50;99.90
21193;DHT22;10754;51.106;7.164;2023-06-26T07:39:54;25.60;99.90
21193;DHT22;10754;51.106;7.164;2023-06-26T07:42:20;25.70;99.90
21193;DHT22;10754;51.106;7.164;2023-06-26T07:44:45;25.70;99.90
21193;DHT22;10754;51.106;7.164;2023-06-26T07:47:11;25.80;99.90
21193;DHT22;10754;51.106;7.164;2023-06-26T07:49:37;25.70;99.90
21193;DHT22;10754;51.106;7.164;2023-06-26T07:52:04;25.70;99.90
21193;DHT22;10754;51.106;7.164;2023-06-26T07:54:30;25.80;99.90
21193;DHT22;10754;51.106;7.164;2023-06-26T07:57:00;25.80;99.90
21193;DHT22;10754;51.106;7.164;2023-06-26T07:59:28;25.80;99.90
21193;DHT22;10754;51.106;7.164;2023-06-26T08:01:56;25.90;99.90
21193;DHT22;10754;51.106;7.164;2023-06-26T08:04:24;25.90;99.90
21193;DHT22;10754;51.106;7.164;2023-06-26T08:06:57;25.90;99.90
21193;DHT22;10754;51.106;7.164;2023-06-26T08:09:26;25.90;99.90
21193;DHT22;10754;51.106;7.164;2023-06-26T08:11:52;26.00;99.90
21193;DHT22;10754;51.106;7.164;2023-06-26T08:14:19;26.00;99.90
21193;DHT22;10754;51.106;7.164;2023-06-26T08:16:45;25.90;99.90
21193;DHT22;10754;51.106;7.164;2023-06-26T08:19:15;25.90;99.90
21193;DHT22;10754;51.106;7.164;2023-06-26T08:21:41;26.00;99.90
21193;DHT22;10754;51.106;7.164;2023-06-26T08:24:07;26.10;99.90
21193;DHT22;10754;51.106;7.164;2023-06-26T08:26:34;26.10;99.90
21193;DHT22;10754;51.106;7.164;2023-06-26T08:29:00;25.90;99.90
21193;DHT22;10754;51.106;7.164;2023-06-26T08:31:26;25.90;99.90
21193;DHT22;10754;51.106;7.164;2023-06-26T08:33:51;26.00;99.90
21193;DHT22;10754;51.106;7.164;2023-06-26T08:36:17;26.00;99.90
21193;DHT22;10754;51.106;7.164;2023-06-26T08:38:43;26.00;99.90
21193;DHT22;10754;51.106;7.164;2023-06-26T08:41:09;26.00;99.90
21193;DHT22;10754;51.106;7.164;2023-06-26T08:43:35;26.20;99.90
21193;DHT22;10754;51.106;7.164;2023-06-26T08:46:01;26.30;99.90
21193;DHT22;10754;51.106;7.164;2023-06-26T08:48:31;26.30;99.90
21193;DHT22;10754;51.106;7.164;2023-06-26T08:51:01;26.40;99.90
21193;DHT22;10754;51.106;7.164;2023-06-26T08:53:43;26.30;99.90
21193;DHT22;10754;51.106;7.164;2023-06-26T08:56:15;26.30;99.90
21193;DHT22;10754;51.106;7.164;2023-06-26T08:58:42;26.20;99.90
21193;DHT22;10754;51.106;7.164;2023-06-26T09:01:08;26.40;99.90
21193;DHT22;10754;51.106;7.164;2023-06-26T09:03:34;26.30;99.90
21193;DHT22;10754;51.106;7.164;2023-06-26T09:06:00;26.50;99.90
21193;DHT22;10754;51.106;7.164;2023-06-26T09:08:25;26.50;99.90
21193;DHT22;10754;51.106;7.164;2023-06-26T09:10:52;26.50;99.90
21193;DHT22;10754;51.106;7.164;2023-06-26T09:13:18;26.60;99.90
21193;DHT22;10754;51.106;7.164;2023-06-26T09:15:45;26.60;99.90
21193;DHT22;10754;51.106;7.164;2023-06-26T09:18:11;26.60;99.90
21193;DHT22;10754;51.106;7.164;2023-06-26T09:20:37;26.70;99.90
21193;DHT22;10754;51.106;7.164;2023-06-26T09:23:03;26.80;99.90
21193;DHT22;10754;51.106;7.164;2023-06-26T09:25:29;26.80;99.90
21193;DHT22;10754;51.106;7.164;2023-06-26T09:27:55;26.70;99.90
21193;DHT22;10754;51.106;7.164;2023-06-26T09:30:21;26.80;99.90
21193;DHT22;10754;51.106;7.164;2023-06-26T09:32:47;26.90;99.90
21193;DHT22;10754;51.106;7.164;2023-06-26T09:35:13;26.80;99.90
21193;DHT22;10754;51.106;7.164;2023-06-26T09:37:39;26.90;99.90
21193;DHT22;10754;51.106;7.164;2023-06-26T09:40:05;26.90;99.90
21193;DHT22;10754;51.106;7.164;2023-06-26T09:42:30;27.00;99.90
21193;DHT22;10754;51.106;7.164;2023-06-26T09:44:56;26.90;99.90
21193;DHT22;10754;51.106;7.164;2023-06-26T09:47:23;27.00;99.90
21193;DHT22;10754;51.106;7.164;2023-06-26T09:49:48;27.10;99.90
21193;DHT22;10754;51.106;7.164;2023-06-26T09:52:15;27.10;99.90
21193;DHT22;10754;51.106;7.164;2023-06-26T09:54:42;27.00;99.90
21193;DHT22;10754;51.106;7.164;2023-06-26T09:57:15;27.00;99.90
21193;DHT22;10754;51.106;7.164;2023-06-26T09:59:42;27.10;99.90
21193;DHT22;10754;51.106;7.164;2023-06-26T10:02:08;27.10;99.90
21193;DHT22;10754;51.106;7.164;2023-06-26T10:04:34;27.10;99.90
21193;DHT22;10754;51.106;7.164;2023-06-26T10:07:02;27.10;99.90
21193;DHT22;10754;51.106;7.164;2023-06-26T10:09:30;27.10;99.90
21193;DHT22;10754;51.106;7.164;2023-06-26T10:12:09;27.10;99.90
21193;DHT22;10754;51.106;7.164;2023-06-26T10:14:37;27.10;99.90
21193;DHT22;10754;51.106;7.164;2023-06-26T10:17:09;27.10;99.90
21193;DHT22;10754;51.106;7.164;2023-06-26T10:19:35;27.00;99.90
21193;DHT22;10754;51.106;7.164;2023-06-26T10:22:02;27.00;99.90
21193;DHT22;10754;51.106;7.164;2023-06-26T10:24:31;27.10;99.90
21193;DHT22;10754;51.106;7.164;2023-06-26T10:27:17;27.20;99.90
21193;DHT22;10754;51.106;7.164;2023-06-26T10:29:49;27.50;99.90
21193;DHT22;10754;51.106;7.164;2023-06-26T10:32:17;27.50;99.90
21193;DHT22;10754;51.106;7.164;2023-06-26T10:34:43;27.50;99.90
21193;DHT22;10754;51.106;7.164;2023-06-26T10:37:09;27.70;99.90
21193;DHT22;10754;51.106;7.164;2023-06-26T10:39:48;27.80;99.90
21193;DHT22;10754;51.106;7.164;2023-06-26T10:42:28;27.90;99.90
21193;DHT22;10754;51.106;7.164;2023-06-26T10:45:19;27.90;99.90
21193;DHT22;10754;51.106;7.164;2023-06-26T10:47:49;28.20;99.90
21193;DHT22;10754;51.106;7.164;2023-06-26T10:50:23;28.30;99.90
21193;DHT22;10754;51.106;7.164;2023-06-26T10:53:08;28.50;99.90
21193;DHT22;10754;51.106;7.164;2023-06-26T10:55:35;28.80;99.90
21193;DHT22;10754;51.106;7.164;2023-06-26T10:58:01;28.80;99.90
21193;DHT22;10754;51.106;7.164;2023-06-26T11:00:28;28.90;99.90
21193;DHT22;10754;51.106;7.164;2023-06-26T11:02:53;28.80;99.90
21193;DHT22;10754;51.106;7.164;2023-06-26T11:05:32;28.80;99.90
21193;DHT22;10754;51.106;7.164;2023-06-26T11:08:05;28.90;99.90
21193;DHT22;10754;51.106;7.164;2023-06-26T11:10:51;29.10;99.90
21193;DHT22;10754;51.106;7.164;2023-06-26T11:13:18;29.30;99.90
21193;DHT22;10754;51.106;7.164;2023-06-26T11:15:45;29.50;99.90
21193;DHT22;10754;51.106;7.164;2023-06-26T11:18:11;29.50;99.90
21193;DHT22;10754;51.106;7.164;2023-06-26T11:20:37;29.70;99.90
21193;DHT22;10754;51.106;7.164;2023-06-26T11:23:04;29.70;99.90
21193;DHT22;10754;51.106;7.164;2023-06-26T11:25:37;29.70;99.90
21193;DHT22;10754;51.106;7.164;2023-06-26T11:28:04;29.80;99.90
21193;DHT22;10754;51.106;7.164;2023-06-26T11:30:31;30.20;99.90
21193;DHT22;10754;51.106;7.164;2023-06-26T11:33:10;30.20;99.90
21193;DHT22;10754;51.106;7.164;2023-06-26T11:35:35;30.40;99.90
21193;DHT22;10754;51.106;7.164;2023-06-26T11:38:03;30.10;99.90
21193;DHT22;10754;51.106;7.164;2023-06-26T11:40:35;30.40;99.90
21193;DHT22;10754;51.106;7.164;2023-06-26T11:43:02;30.60;99.90
21193;DHT22;10754;51.106;7.164;2023-06-26T11:45:29;30.60;99.90
21193;DHT22;10754;51.106;7.164;2023-06-26T11:47:56;30.60;99.90
21193;DHT22;10754;51.106;7.164;2023-06-26T11:50:22;30.80;99.90
21193;DHT22;10754;51.106;7.164;2023-06-26T11:52:55;30.70;99.90
21193;DHT22;10754;51.106;7.164;2023-06-26T11:55:22;30.10;99.90
21193;DHT22;10754;51.106;7.164;2023-06-26T11:57:49;29.80;99.90
21193;DHT22;10754;51.106;7.164;2023-06-26T12:00:16;29.70;99.90
21193;DHT22;10754;51.106;7.164;2023-06-26T12:02:45;29.80;99.90
21193;DHT22;10754;51.106;7.164;2023-06-26T12:05:20;30.20;99.90
21193;DHT22;10754;51.106;7.164;2023-06-26T12:07:47;30.50;99.90
21193;DHT22;10754;51.106;7.164;2023-06-26T12:10:14;30.70;99.90
21193;DHT22;10754;51.106;7.164;2023-06-26T12:12:40;30.80;99.90
21193;DHT22;10754;51.106;7.164;2023-06-26T12:15:07;30.80;99.90
21193;DHT22;10754;51.106;7.164;2023-06-26T12:17:37;30.90;99.90
21193;DHT22;10754;51.106;7.164;2023-06-26T12:20:03;31.30;99.90
21193;DHT22;10754;51.106;7.164;2023-06-26T12:22:34;31.20;99.90
21193;DHT22;10754;51.106;7.164;2023-06-26T12:25:00;30.70;99.90
21193;DHT22;10754;51.106;7.164;2023-06-26T12:27:26;30.40;99.90
21193;DHT22;10754;51.106;7.164;2023-06-26T12:29:54;30.10;99.90
21193;DHT22;10754;51.106;7.164;2023-06-26T12:32:21;30.30;99.90
21193;DHT22;10754;51.106;7.164;2023-06-26T12:34:49;30.90;99.90
21193;DHT22;10754;51.106;7.164;2023-06-26T12:37:15;31.20;99.90
21193;DHT22;10754;51.106;7.164;2023-06-26T12:39:48;30.80;99.90
21193;DHT22;10754;51.106;7.164;2023-06-26T12:42:15;30.60;99.90
21193;DHT22;10754;51.106;7.164;2023-06-26T12:44:41;31.10;99.90
21193;DHT22;10754;51.106;7.164;2023-06-26T12:47:07;31.10;99.90
21193;DHT22;10754;51.106;7.164;2023-06-26T12:49:41;31.10;99.90
21193;DHT22;10754;51.106;7.164;2023-06-26T12:52:08;30.90;99.90
21193;DHT22;10754;51.106;7.164;2023-06-26T12:54:35;30.80;99.90
21193;DHT22;10754;51.106;7.164;2023-06-26T12:57:00;31.20;99.90
21193;DHT22;10754;51.106;7.164;2023-06-26T12:59:26;31.20;99.90
21193;DHT22;10754;51.106;7.164;2023-06-26T13:01:52;30.90;99.90
21193;DHT22;10754;51.106;7.164;2023-06-26T13:04:18;30.50;99.90
21193;DHT22;10754;51.106;7.164;2023-06-26T13:06:44;30.30;99.90
21193;DHT22;10754;51.106;7.164;2023-06-26T13:09:10;30.00;99.90
21193;DHT22;10754;51.106;7.164;2023-06-26T13:11:37;31.00;99.90
21193;DHT22;10754;51.106;7.164;2023-06-26T13:14:02;31.90;99.90
21193;DHT22;10754;51.106;7.164;2023-06-26T13:16:28;31.80;99.90
21193;DHT22;10754;51.106;7.164;2023-06-26T13:18:54;32.40;99.90
21193;DHT22;10754;51.106;7.164;2023-06-26T13:21:21;32.40;99.90
21193;DHT22;10754;51.106;7.164;2023-06-26T13:23:46;33.00;99.90
21193;DHT22;10754;51.106;7.164;2023-06-26T13:26:12;33.80;99.90
21193;DHT22;10754;51.106;7.164;2023-06-26T13:28:38;33.60;99.90
21193;DHT22;10754;51.106;7.164;2023-06-26T13:31:04;32.40;99.90
21193;DHT22;10754;51.106;7.164;2023-06-26T13:33:32;31.70;99.90
21193;DHT22;10754;51.106;7.164;2023-06-26T13:35:58;31.30;99.90
21193;DHT22;10754;51.106;7.164;2023-06-26T13:38:24;32.70;99.90
21193;DHT22;10754;51.106;7.164;2023-06-26T13:40:53;33.30;99.90
21193;DHT22;10754;51.106;7.164;2023-06-26T13:43:21;33.90;99.90
21193;DHT22;10754;51.106;7.164;2023-06-26T13:45:47;34.30;99.90
21193;DHT22;10754;51.106;7.164;2023-06-26T13:48:13;33.60;99.90
21193;DHT22;10754;51.106;7.164;2023-06-26T13:50:39;32.90;99.90
21193;DHT22;10754;51.106;7.164;2023-06-26T13:53:04;33.40;99.90
21193;DHT22;10754;51.106;7.164;2023-06-26T13:55:30;33.50;99.90
21193;DHT22;10754;51.106;7.164;2023-06-26T13:57:56;33.40;99.90
21193;DHT22;10754;51.106;7.164;2023-06-26T14:00:22;33.30;99.90
21193;DHT22;10754;51.106;7.164;2023-06-26T14:02:51;32.50;99.90
21193;DHT22;10754;51.106;7.164;2023-06-26T14:05:17;32.00;99.90
21193;DHT22;10754;51.106;7.164;2023-06-26T14:07:47;31.70;99.90
21193;DHT22;10754;51.106;7.164;2023-06-26T14:10:13;31.40;99.90
21193;DHT22;10754;51.106;7.164;2023-06-26T14:12:39;31.10;99.90
21193;DHT22;10754;51.106;7.164;2023-06-26T14:15:05;30.90;99.90
21193;DHT22;10754;51.106;7.164;2023-06-26T14:17:31;30.60;99.90
21193;DHT22;10754;51.106;7.164;2023-06-26T14:19:56;30.50;99.90
21193;DHT22;10754;51.106;7.164;2023-06-26T14:22:22;30.60;99.90
21193;DHT22;10754;51.106;7.164;2023-06-26T14:24:48;30.70;99.90
21193;DHT22;10754;51.106;7.164;2023-06-26T14:27:14;30.60;99.90
21193;DHT22;10754;51.106;7.164;2023-06-26T14:29:40;30.70;99.90
21193;DHT22;10754;51.106;7.164;2023-06-26T14:32:06;30.60;99.90
21193;DHT22;10754;51.106;7.164;2023-06-26T14:34:32;30.80;99.90
21193;DHT22;10754;51.106;7.164;2023-06-26T14:36:57;30.80;99.90
21193;DHT22;10754;51.106;7.164;2023-06-26T14:39:23;30.60;99.90
21193;DHT22;10754;51.106;7.164;2023-06-26T14:41:48;30.40;99.90
21193;DHT22;10754;51.106;7.164;2023-06-26T14:44:15;30.50;99.90
21193;DHT22;10754;51.106;7.164;2023-06-26T14:46:40;31.00;99.90
21193;DHT22;10754;51.106;7.164;2023-06-26T14:49:06;30.70;99.90
21193;DHT22;10754;51.106;7.164;2023-06-26T14:51:31;30.50;99.90
21193;DHT22;10754;51.106;7.164;2023-06-26T14:53:57;30.20;99.90
21193;DHT22;10754;51.106;7.164;2023-06-26T14:56:22;29.60;99.90
21193;DHT22;10754;51.106;7.164;2023-06-26T14:58:49;29.20;99.90
21193;DHT22;10754;51.106;7.164;2023-06-26T15:01:14;29.10;99.90
21193;DHT22;10754;51.106;7.164;2023-06-26T15:03:45;29.20;99.90
21193;DHT22;10754;51.106;7.164;2023-06-26T15:06:10;29.00;99.90
21193;DHT22;10754;51.106;7.164;2023-06-26T15:08:36;28.90;99.90
21193;DHT22;10754;51.106;7.164;2023-06-26T15:11:02;28.90;99.90
21193;DHT22;10754;51.106;7.164;2023-06-26T15:13:28;29.00;99.90
21193;DHT22;10754;51.106;7.164;2023-06-26T15:15:54;29.00;99.90
21193;DHT22;10754;51.106;7.164;2023-06-26T15:18:19;28.90;99.90
21193;DHT22;10754;51.106;7.164;2023-06-26T15:20:45;28.90;99.90
21193;DHT22;10754;51.106;7.164;2023-06-26T15:23:10;28.90;99.90
21193;DHT22;10754;51.106;7.164;2023-06-26T15:25:36;28.90;99.90
21193;DHT22;10754;51.106;7.164;2023-06-26T15:28:06;28.90;99.90
21193;DHT22;10754;51.106;7.164;2023-06-26T15:30:31;28.70;99.90
21193;DHT22;10754;51.106;7.164;2023-06-26T15:32:57;28.80;99.90